嘉手納 の空港の天気 - METARとTAF

嘉手納基地 ( RODN / DNA ) - 沖縄県沖縄市
飛行場実況気象(Metar)
観測時間03/22 08:16 JST (03/21 23:16 UTC)
風向・風速北 2m/s
視程10km以上
天気現象
全天の8割程度の雲 雲底高度 850m
気温21℃
湿度94%
気圧1014.8hPa
METARRODN 212316Z AUTO 36004KT 7SM BKN028 21/20 A2995 RMK AO2 BKN V FEW CIG 026 RWY05 SLP148 $
過去の天気等 Google飛行場航空写真 Wunderground天気予報

過去48時間のMETAR

飛行場予報(TAF)
発表時間: 3/22 06:57 JST (3/21 21:57 UTC)
予報対象時間: 22日6時 JST ~ 23日7時 JST
風向・風速北北東 5m/s
視程10km以上
全天の8割程度の雲 雲底高度 760m
22日6時 JST ~ 22日9時 JST に一時的に
視程8000m
天気現象弱いしゅう雨
全天の8割程度の雲 雲底高度 270m
22日9時 JST ~ 22日15時 JST に一時的に
風向・風速北北東 5m/s 瞬間風速 10m/s
視程8000m
天気現象弱いしゅう雨
全天の8割程度の雲 雲底高度 300m
22日15時 JST ~ 22日17時 JST に徐々に
風向・風速北北東 6m/s
視程10km以上
全天の8割程度の雲 雲底高度 610m
TAF AMD RODN 212157Z 2121/2222 02009KT 9999 BKN025 QNH2984INS
TEMPO 2121/2124 8000 -SHRA BKN009
TEMPO 2200/2206 02010G20KT 8000 -SHRA BKN010
BECMG 2206/2208 03012KT 9999 BKN020 QNH2989INS TX26/2206Z TN20/2121Z
日本の空港のMETAR・TAFへのリンク

RJTT 東京国際空港
RJAA 新東京国際空港
RJBB 関西国際空港
RJOO 大阪空港
RJGG 中部国際空港
RJCC 新千歳空港
RJFF 福岡空港
ROAH 那覇空港


RJEC 旭川空港
RJCH 函館空港
RJCK 釧路空港
RJCM 女満別空港
RJCB 帯広空港
RJSA 青森空港
RJSS 仙台空港
RJSK 秋田空港
RJSF 福島空港
RJAH 茨城空港
RJSN 新潟空港
RJNT 富山空港
RJNK 小松飛行場
RJNS 静岡空港
RJOH 美保飛行場
RJOC 出雲空港
RJOB 岡山空港
RJOA 広島空港
RJOI 岩国飛行場
RJOT 高松空港
RJOM 松山空港
RJOK 高知空港
RJFR 北九州空港
RJFT 熊本空港
RJFU 長崎空港
RJFS 佐賀空港
RJFO 大分空港
RJFM 宮崎空港
RJFK 鹿児島空港
ROIG 石垣島空港
RJTY 横田飛行場
ROTM 普天間飛行場
RODN 嘉手納飛行場